Time;durP1;ratioP1;P1;durP2;ratioP2;P2;SDS_P1;SDS_P2;PMS_P1;PMS_P2;Temp;Humidity;BMP_temperature;BMP_pressure;BME280_temperature;BME280_humidity;BME280_pressure;Samples;Min_cycle;Max_cycle;Signal;HPM_P1;HPM_P2
2022/02/16 00:00:47;;;;;;;3.50;1.30;;;;;;;3.01;100.00;95512.38;5072786;28;24788;-74
2022/02/16 00:03:13;;;;;;;4.63;1.80;;;;;;;3.08;100.00;95510.41;5073296;28;24776;-75
2022/02/16 00:05:40;;;;;;;3.15;1.45;;;;;;;3.11;100.00;95508.53;5072523;28;24449;-75
2022/02/16 00:08:06;;;;;;;4.75;1.40;;;;;;;3.24;100.00;95506.38;5072924;28;24464;-74
2022/02/16 00:10:33;;;;;;;6.38;1.77;;;;;;;3.15;100.00;95502.44;5072928;28;24434;-74
2022/02/16 00:12:59;;;;;;;3.78;1.67;;;;;;;3.14;100.00;95495.63;5072702;28;24484;-75
2022/02/16 00:15:28;;;;;;;11.18;1.95;;;;;;;3.23;100.00;95491.91;5072313;28;25001;-75
2022/02/16 00:17:55;;;;;;;8.10;3.22;;;;;;;3.23;100.00;95501.31;5072135;28;24518;-75
2022/02/16 00:20:22;;;;;;;7.80;4.80;;;;;;;3.19;100.00;95503.16;5072392;28;24426;-75
2022/02/16 00:22:48;;;;;;;6.50;1.50;;;;;;;3.17;100.00;95510.06;5072601;28;24438;-75
2022/02/16 00:25:14;;;;;;;3.05;1.13;;;;;;;3.14;100.00;95505.88;5072397;28;24462;-75
2022/02/16 00:27:41;;;;;;;2.80;1.13;;;;;;;3.22;100.00;95497.06;5072216;28;24430;-75
2022/02/16 00:30:08;;;;;;;4.30;1.10;;;;;;;3.22;100.00;95497.06;5072113;28;24990;-75
2022/02/16 00:32:36;;;;;;;4.07;1.20;;;;;;;3.19;100.00;95492.94;5072086;28;24509;-74
2022/02/16 00:35:03;;;;;;;3.67;1.00;;;;;;;3.19;100.00;95492.94;5072324;28;24415;-74
2022/02/16 00:37:29;;;;;;;2.53;1.00;;;;;;;3.26;100.00;95493.50;5072022;28;24430;-75
2022/02/16 00:39:56;;;;;;;2.08;0.85;;;;;;;3.22;100.00;95486.84;5071555;28;24935;-75
2022/02/16 00:42:22;;;;;;;2.13;1.00;;;;;;;3.26;100.00;95486.66;5071684;28;24454;-75
2022/02/16 00:44:49;;;;;;;4.53;1.25;;;;;;;3.28;100.00;95484.88;5072245;28;24434;-75
2022/02/16 00:47:15;;;;;;;2.97;1.15;;;;;;;3.23;100.00;95485.97;5071916;28;24508;-75
2022/02/16 00:49:43;;;;;;;3.92;1.30;;;;;;;3.19;100.00;95486.94;5072295;28;24434;-75
2022/02/16 00:52:09;;;;;;;4.07;1.10;;;;;;;3.25;100.00;95481.59;5072118;28;24882;-75
2022/02/16 00:54:37;;;;;;;3.05;1.00;;;;;;;3.26;100.00;95480.69;5071698;28;24947;-75
2022/02/16 00:57:05;;;;;;;1.95;0.95;;;;;;;3.24;100.00;95462.03;5071845;28;24476;-75
2022/02/16 00:59:32;;;;;;;3.28;1.20;;;;;;;3.13;100.00;95470.13;5071620;28;24823;-75
2022/02/16 01:01:58;;;;;;;4.93;1.30;;;;;;;3.15;100.00;95460.66;5071368;28;24427;-75
2022/02/16 01:04:25;;;;;;;2.60;1.20;;;;;;;3.10;100.00;95460.00;5071734;28;24415;-75
2022/02/16 01:06:53;;;;;;;2.97;0.90;;;;;;;3.07;100.00;95449.88;5071195;28;24454;-75
2022/02/16 01:09:19;;;;;;;3.65;1.27;;;;;;;3.11;100.00;95447.13;5071568;28;24411;-76
2022/02/16 01:11:46;;;;;;;2.05;1.13;;;;;;;3.10;100.00;95442.91;5071600;28;24434;-75
2022/02/16 01:14:12;;;;;;;3.00;1.10;;;;;;;3.05;100.00;95449.13;5071297;28;24963;-75
2022/02/16 01:16:39;;;;;;;2.33;1.10;;;;;;;3.10;100.00;95440.34;5071317;28;24423;-75
2022/02/16 01:19:05;;;;;;;4.28;2.10;;;;;;;3.01;100.00;95448.41;5071469;28;24468;-75
2022/02/16 01:21:32;;;;;;;3.07;1.20;;;;;;;3.00;100.00;95446.72;5071328;28;24522;-75
2022/02/16 01:24:00;;;;;;;9.93;1.33;;;;;;;3.03;100.00;95445.78;5071259;28;24972;-75
2022/02/16 01:26:27;;;;;;;4.40;1.50;;;;;;;2.91;100.00;95436.84;5071335;28;24447;-76
2022/02/16 01:28:54;;;;;;;5.03;1.35;;;;;;;2.90;100.00;95428.34;5070709;28;24422;-75
2022/02/16 01:31:20;;;;;;;3.38;1.30;;;;;;;2.84;100.00;95428.56;5071204;28;24508;-75
2022/02/16 01:33:47;;;;;;;5.55;1.38;;;;;;;2.79;100.00;95424.53;5071320;28;24423;-75
2022/02/16 01:36:14;;;;;;;1.40;0.85;;;;;;;2.80;100.00;95418.53;5071151;28;24465;-75
2022/02/16 01:38:40;;;;;;;3.15;1.10;;;;;;;2.77;100.00;95418.63;5070769;28;24468;-75
2022/02/16 01:41:13;;;;;;;3.05;1.10;;;;;;;2.76;100.00;95424.66;5070750;28;25008;-75
2022/02/16 01:43:45;;;;;;;3.53;1.23;;;;;;;2.70;100.00;95427.41;5070732;28;24422;-75
2022/02/16 01:46:11;;;;;;;5.80;1.10;;;;;;;2.73;100.00;95425.59;5070599;28;24991;-74
2022/02/16 01:48:38;;;;;;;3.38;1.23;;;;;;;2.75;100.00;95423.81;5070425;28;24429;-75
2022/02/16 01:51:04;;;;;;;3.20;1.23;;;;;;;2.74;100.00;95409.34;5071002;28;24430;-75
2022/02/16 01:53:31;;;;;;;2.53;1.05;;;;;;;2.77;100.00;95408.41;5070450;28;24422;-75
2022/02/16 01:55:57;;;;;;;2.08;0.82;;;;;;;2.75;100.00;95403.34;5070949;28;24415;-75
2022/02/16 01:58:25;;;;;;;3.53;1.10;;;;;;;2.70;100.00;95394.19;5070778;28;24418;-75
2022/02/16 02:00:52;;;;;;;5.37;1.00;;;;;;;2.76;100.00;95386.28;5070612;28;24422;-75
2022/02/16 02:03:18;;;;;;;5.70;1.10;;;;;;;2.72;100.00;95384.75;5070932;28;24475;-75
2022/02/16 02:05:45;;;;;;;2.60;0.83;;;;;;;2.74;100.00;95386.31;5070537;28;24781;-75
2022/02/16 02:08:12;;;;;;;4.40;0.80;;;;;;;2.78;100.00;95375.13;5070686;28;24480;-75
2022/02/16 02:10:39;;;;;;;4.50;1.00;;;;;;;2.68;100.00;95371.25;5070595;28;24422;-75
2022/02/16 02:13:05;;;;;;;3.25;0.98;;;;;;;2.76;100.00;95374.31;5070727;28;24422;-75
2022/02/16 02:15:33;;;;;;;1.60;0.80;;;;;;;2.80;100.00;95368.19;5070561;28;24484;-74
2022/02/16 02:18:00;;;;;;;1.33;0.70;;;;;;;2.75;100.00;95359.06;5070375;28;24867;-75
2022/02/16 02:20:29;;;;;;;1.20;0.53;;;;;;;2.77;100.00;95347.84;5070776;28;24496;-75
2022/02/16 02:22:56;;;;;;;3.88;0.85;;;;;;;2.70;100.00;95348.16;5070370;28;24484;-75
2022/02/16 02:25:23;;;;;;;1.30;0.68;;;;;;;2.67;100.00;95344.84;5070589;28;24457;-75
2022/02/16 02:27:50;;;;;;;1.42;0.80;;;;;;;2.69;100.00;95338.81;5070270;28;24485;-75
2022/02/16 02:30:17;;;;;;;1.37;0.57;;;;;;;2.57;100.00;95332.47;5070317;28;24819;-75
2022/02/16 02:32:48;;;;;;;1.15;0.60;;;;;;;2.69;100.00;95338.81;5070499;28;24431;-75
2022/02/16 02:35:15;;;;;;;4.18;1.08;;;;;;;2.57;100.00;95333.28;5070423;28;24969;-75
2022/02/16 02:37:43;;;;;;;2.67;0.80;;;;;;;2.67;100.00;95329.50;5070484;28;24506;-75
2022/02/16 02:40:11;;;;;;;2.00;0.60;;;;;;;2.81;100.00;95331.50;5070687;28;24426;-75
2022/02/16 02:42:39;;;;;;;1.35;0.50;;;;;;;2.66;100.00;95327.81;5070386;28;24415;-75
2022/02/16 02:45:08;;;;;;;2.10;0.60;;;;;;;2.72;100.00;95318.25;5070319;28;24421;-74
2022/02/16 02:47:34;;;;;;;1.40;0.60;;;;;;;2.66;100.00;95321.88;5076773;28;24450;-75
2022/02/16 02:50:01;;;;;;;1.05;0.60;;;;;;;2.67;100.00;95315.88;5081833;28;24433;-75
2022/02/16 02:52:27;;;;;;;0.93;0.47;;;;;;;2.64;100.00;95301.50;5090525;28;24426;-75
2022/02/16 02:54:55;;;;;;;1.20;0.40;;;;;;;2.75;100.00;95292.56;5090594;28;24437;-75
2022/02/16 02:57:22;;;;;;;1.30;0.40;;;;;;;2.79;100.00;95284.72;5090149;28;24422;-75
2022/02/16 02:59:48;;;;;;;0.82;0.40;;;;;;;2.67;100.00;95283.47;5090408;28;24421;-75
2022/02/16 03:02:14;;;;;;;1.67;0.43;;;;;;;2.72;100.00;95274.78;5090083;28;24960;-75
2022/02/16 03:04:41;;;;;;;1.02;0.43;;;;;;;2.80;100.00;95270.19;5092612;28;24657;-75
2022/02/16 03:07:07;;;;;;;1.08;0.38;;;;;;;2.72;100.00;95265.38;5094069;28;24438;-75
2022/02/16 03:09:34;;;;;;;1.50;0.47;;;;;;;2.69;100.00;95267.22;5094293;28;24430;-75
2022/02/16 03:12:01;;;;;;;0.55;0.30;;;;;;;2.67;100.00;95267.31;5094112;28;24418;-76
2022/02/16 03:14:28;;;;;;;0.75;0.30;;;;;;;2.62;100.00;95264.09;5094109;28;24433;-75
2022/02/16 03:16:55;;;;;;;1.27;0.50;;;;;;;2.70;100.00;95256.94;5085667;28;24530;-75
2022/02/16 03:19:22;;;;;;;0.73;0.20;;;;;;;2.70;100.00;95248.44;5080916;28;24525;-75
2022/02/16 03:21:49;;;;;;;0.70;0.30;;;;;;;2.66;100.00;95255.41;5081956;28;24444;-75
2022/02/16 03:24:15;;;;;;;1.85;0.40;;;;;;;2.72;100.00;95251.78;5094096;28;24483;-75
2022/02/16 03:26:41;;;;;;;0.30;0.30;;;;;;;2.74;100.00;95247.41;5093394;28;24974;-76
2022/02/16 03:29:09;;;;;;;0.70;0.30;;;;;;;2.79;100.00;95250.63;5093871;28;25044;-75
2022/02/16 03:31:36;;;;;;;0.60;0.30;;;;;;;2.72;100.00;95241.53;5093544;28;24949;-75
2022/02/16 03:34:02;;;;;;;0.90;0.40;;;;;;;2.84;100.00;95235.94;5093732;28;24951;-75
2022/02/16 03:36:29;;;;;;;0.90;0.40;;;;;;;2.79;100.00;95238.69;5093833;28;24420;-75
2022/02/16 03:38:57;;;;;;;0.63;0.30;;;;;;;2.82;100.00;95235.19;5093645;28;24417;-74
2022/02/16 03:41:23;;;;;;;0.52;0.30;;;;;;;2.76;100.00;95231.13;5093510;28;24429;-75
2022/02/16 03:43:50;;;;;;;0.90;0.30;;;;;;;2.92;100.00;95224.47;5093487;28;24422;-75
2022/02/16 03:46:18;;;;;;;1.20;0.30;;;;;;;2.83;100.00;95226.59;5092931;28;24441;-75
2022/02/16 03:48:44;;;;;;;1.50;0.40;;;;;;;2.95;100.00;95226.09;5090737;28;24811;-75
2022/02/16 03:51:10;;;;;;;1.60;0.38;;;;;;;2.85;100.00;95229.91;5085005;28;24438;-75
2022/02/16 03:53:37;;;;;;;0.60;0.20;;;;;;;2.82;100.00;95230.88;5093340;28;24422;-75
2022/02/16 03:56:04;;;;;;;0.90;0.38;;;;;;;2.88;100.00;95224.66;5093299;28;24414;-75
2022/02/16 03:58:30;;;;;;;0.32;0.20;;;;;;;2.85;100.00;95220.50;5093131;28;24414;-75
2022/02/16 04:00:56;;;;;;;0.30;0.30;;;;;;;2.85;100.00;95223.06;5092963;28;24930;-76
2022/02/16 04:03:25;;;;;;;0.75;0.30;;;;;;;2.92;100.00;95215.97;5093493;28;24822;-75
2022/02/16 04:05:51;;;;;;;0.68;0.35;;;;;;;2.90;100.00;95215.22;5093023;28;24476;-76
2022/02/16 04:08:18;;;;;;;0.52;0.25;;;;;;;2.89;100.00;95216.09;5093068;28;24495;-75
2022/02/16 04:10:44;;;;;;;0.20;0.20;;;;;;;2.91;100.00;95220.25;5093043;28;24426;-75
2022/02/16 04:13:11;;;;;;;0.47;0.28;;;;;;;2.98;100.00;95202.09;5093244;28;24425;-75
2022/02/16 04:15:37;;;;;;;2.00;0.50;;;;;;;3.01;100.00;95192.56;5092617;28;24975;-75
2022/02/16 04:18:04;;;;;;;0.30;0.20;;;;;;;3.00;100.00;95200.31;5092741;28;24573;-75
2022/02/16 04:20:31;;;;;;;0.30;0.20;;;;;;;3.08;100.00;95199.09;5092932;28;24463;-75
2022/02/16 04:22:58;;;;;;;0.32;0.20;;;;;;;3.05;100.00;95194.09;5092568;28;24448;-74
2022/02/16 04:25:24;;;;;;;0.63;0.20;;;;;;;3.10;100.00;95194.72;5092723;28;24410;-74
2022/02/16 04:27:51;;;;;;;0.68;0.25;;;;;;;3.08;100.00;95186.31;5092625;28;24458;-74
2022/02/16 04:30:18;;;;;;;0.80;0.20;;;;;;;2.98;100.00;95192.69;5092541;28;24410;-75
2022/02/16 04:32:44;;;;;;;0.30;0.20;;;;;;;3.02;100.00;95185.72;5092655;28;24533;-74
2022/02/16 04:35:11;;;;;;;0.88;0.20;;;;;;;3.07;100.00;95192.28;5092571;28;24787;-74
2022/02/16 04:37:39;;;;;;;0.65;0.20;;;;;;;3.06;100.00;95195.75;5092537;28;24472;-75
2022/02/16 04:40:06;;;;;;;0.70;0.35;;;;;;;3.04;100.00;95195.00;5092701;28;24422;-75
2022/02/16 04:42:33;;;;;;;0.30;0.20;;;;;;;3.09;100.00;95200.75;5092534;28;24437;-75
2022/02/16 04:44:59;;;;;;;1.25;0.30;;;;;;;3.00;100.00;95190.06;5092466;28;24418;-75
2022/02/16 04:47:26;;;;;;;1.00;0.30;;;;;;;3.17;100.00;95192.75;5092243;28;24925;-74
2022/02/16 04:49:52;;;;;;;0.67;0.20;;;;;;;3.12;100.00;95182.72;5092253;28;25051;-75
2022/02/16 04:52:19;;;;;;;0.40;0.20;;;;;;;3.08;100.00;95188.03;5092122;28;24422;-75
2022/02/16 04:54:46;;;;;;;0.30;0.20;;;;;;;3.13;100.00;95179.25;5091981;28;24564;-75
2022/02/16 04:57:13;;;;;;;0.85;0.32;;;;;;;3.11;100.00;95168.25;5091821;28;24418;-75
2022/02/16 04:59:40;;;;;;;0.50;0.17;;;;;;;3.13;100.00;95170.75;5092241;28;24509;-75
2022/02/16 05:02:07;;;;;;;0.80;0.30;;;;;;;3.09;100.00;95164.94;5091925;28;24430;-75
2022/02/16 05:04:33;;;;;;;0.50;0.28;;;;;;;3.05;100.00;95158.28;5092031;28;24422;-75
2022/02/16 05:06:59;;;;;;;0.63;0.28;;;;;;;3.06;100.00;95159.13;5091900;28;24450;-75
2022/02/16 05:09:26;;;;;;;0.15;0.10;;;;;;;3.08;100.00;95155.59;5092154;28;24419;-75
2022/02/16 05:11:54;;;;;;;0.30;0.20;;;;;;;3.17;100.00;95169.72;5091749;28;24414;-75
2022/02/16 05:14:20;;;;;;;0.70;0.40;;;;;;;3.21;100.00;95160.19;5092084;28;24429;-75
2022/02/16 05:16:46;;;;;;;1.63;0.40;;;;;;;3.24;100.00;95165.16;5091666;28;24421;-75
2022/02/16 05:19:14;;;;;;;1.17;0.80;;;;;;;3.40;100.00;95150.78;5091632;28;24418;-75
2022/02/16 05:21:40;;;;;;;1.80;0.60;;;;;;;3.25;100.00;95148.91;5091805;28;24449;-75
2022/02/16 05:24:10;;;;;;;1.30;0.57;;;;;;;3.29;100.00;95137.63;5091717;28;24438;-75
2022/02/16 05:26:38;;;;;;;0.68;0.43;;;;;;;3.26;100.00;95141.16;5090710;28;24426;-75
2022/02/16 05:29:07;;;;;;;1.75;1.08;;;;;;;3.15;100.00;95143.34;5091677;28;24475;-75
2022/02/16 05:31:33;;;;;;;1.50;0.80;;;;;;;3.07;100.00;95141.13;5091618;28;24515;-75
2022/02/16 05:34:00;;;;;;;0.98;0.70;;;;;;;3.11;100.00;95141.81;5091651;28;24446;-76
2022/02/16 05:36:26;;;;;;;1.40;0.82;;;;;;;3.08;100.00;95137.69;5091294;28;24429;-74
2022/02/16 05:38:53;;;;;;;2.23;0.97;;;;;;;3.24;100.00;95130.16;5091257;28;24414;-75
2022/02/16 05:41:19;;;;;;;1.27;0.70;;;;;;;3.12;100.00;95121.31;5091397;28;24426;-75
2022/02/16 05:43:46;;;;;;;1.20;0.52;;;;;;;3.05;100.00;95108.84;5091409;28;24429;-75
2022/02/16 05:46:14;;;;;;;1.23;0.43;;;;;;;3.15;100.00;95110.94;5091396;28;24418;-75
2022/02/16 05:48:41;;;;;;;1.00;0.60;;;;;;;3.12;100.00;95100.84;5091163;28;24499;-75
2022/02/16 05:51:08;;;;;;;0.95;0.45;;;;;;;3.03;100.00;95119.13;5091038;28;24479;-75
2022/02/16 05:53:34;;;;;;;0.70;0.30;;;;;;;3.14;100.00;95111.81;5090879;28;24834;-75
2022/02/16 05:56:01;;;;;;;0.73;0.40;;;;;;;3.14;100.00;95109.25;5091161;28;24484;-75
2022/02/16 05:58:27;;;;;;;1.30;0.50;;;;;;;3.13;100.00;95101.66;5091080;28;24426;-75
2022/02/16 06:00:53;;;;;;;1.25;0.43;;;;;;;3.07;100.00;95091.69;5091026;28;24827;-75
2022/02/16 06:03:21;;;;;;;1.08;0.55;;;;;;;3.09;100.00;95093.28;5091802;28;24483;-77
2022/02/16 06:05:48;;;;;;;0.82;0.40;;;;;;;3.12;100.00;95092.34;5090649;28;24430;-77
2022/02/16 06:08:14;;;;;;;0.80;0.57;;;;;;;3.31;100.00;95087.22;5090638;28;24445;-77
2022/02/16 06:10:41;;;;;;;2.25;1.02;;;;;;;3.20;100.00;95087.72;5090920;28;24517;-76
2022/02/16 06:13:07;;;;;;;0.88;0.57;;;;;;;3.20;100.00;95074.91;5091555;28;24482;-77
2022/02/16 06:15:34;;;;;;;0.77;0.55;;;;;;;3.30;100.00;95068.50;5092000;28;24430;-78
2022/02/16 06:18:00;;;;;;;0.55;0.35;;;;;;;3.34;100.00;95066.63;5090621;28;24523;-78
2022/02/16 06:20:28;;;;;;;0.40;0.40;;;;;;;3.30;100.00;95070.19;5090568;28;24418;-77
2022/02/16 06:22:56;;;;;;;0.90;0.32;;;;;;;3.48;100.00;95068.53;5090993;28;24434;-77
2022/02/16 06:25:23;;;;;;;0.80;0.50;;;;;;;3.47;100.00;95070.25;5091037;28;24433;-77
2022/02/16 06:27:50;;;;;;;1.10;0.47;;;;;;;3.45;100.00;95074.63;5090715;28;24491;-77
2022/02/16 06:30:16;;;;;;;0.50;0.20;;;;;;;3.49;100.00;95078.72;5091107;28;24418;-78
2022/02/16 06:32:44;;;;;;;0.40;0.30;;;;;;;3.56;100.00;95069.84;5090992;28;24430;-78
2022/02/16 06:35:11;;;;;;;0.30;0.20;;;;;;;3.55;100.00;95059.66;5091337;28;24824;-78
2022/02/16 06:37:39;;;;;;;0.90;0.22;;;;;;;3.58;100.00;95062.91;5090911;28;24833;-78
2022/02/16 06:40:09;;;;;;;1.63;0.30;;;;;;;3.59;100.00;95069.69;5093960;28;24418;-78
2022/02/16 06:42:38;;;;;;;0.35;0.30;;;;;;;3.58;100.00;95065.47;5095165;28;24475;-78
2022/02/16 06:45:06;;;;;;;0.40;0.20;;;;;;;3.76;100.00;95052.72;5095119;28;24449;-78
2022/02/16 06:47:32;;;;;;;0.25;0.20;;;;;;;3.66;100.00;95059.97;5094769;28;24445;-77
2022/02/16 06:49:59;;;;;;;0.60;0.38;;;;;;;3.69;100.00;95059.84;5094760;28;24479;-77
2022/02/16 06:52:25;;;;;;;0.77;0.77;;;;;;;3.71;100.00;95065.75;5094999;28;24472;-77
2022/02/16 06:54:53;;;;;;;0.80;0.30;;;;;;;3.75;100.00;95056.19;5085572;28;24805;-77
2022/02/16 06:57:19;;;;;;;0.40;0.20;;;;;;;3.80;100.00;95069.59;5075844;28;24641;-76
2022/02/16 06:59:46;;;;;;;0.20;0.20;;;;;;;3.83;100.00;95064.31;5074677;28;24429;-75
2022/02/16 07:02:12;;;;;;;0.90;0.20;;;;;;;3.80;100.00;95060.16;5073264;28;24434;-75
2022/02/16 07:04:39;;;;;;;0.50;0.30;;;;;;;3.90;100.00;95063.13;5075068;28;24430;-78
2022/02/16 07:07:06;;;;;;;0.20;0.17;;;;;;;3.89;100.00;95064.00;5076422;28;24419;-78
2022/02/16 07:09:32;;;;;;;0.10;0.10;;;;;;;3.89;100.00;95064.00;5076182;28;24843;-77
2022/02/16 07:12:00;;;;;;;0.20;0.17;;;;;;;3.90;100.00;95073.38;5076091;28;24955;-77
2022/02/16 07:14:26;;;;;;;0.10;0.10;;;;;;;3.91;100.00;95074.19;5082896;28;24426;-77
2022/02/16 07:16:53;;;;;;;0.38;0.28;;;;;;;3.96;100.00;95073.06;5093930;28;24453;-77
2022/02/16 07:19:22;;;;;;;0.28;0.10;;;;;;;3.95;100.00;95073.16;5088554;28;24438;-76
2022/02/16 07:21:48;;;;;;;0.32;0.10;;;;;;;3.96;100.00;95070.50;5088554;28;24793;-78
2022/02/16 07:24:15;;;;;;;0.73;0.10;;;;;;;3.92;100.00;95061.31;5079473;28;24438;-77
2022/02/16 07:26:41;;;;;;;0.20;0.15;;;;;;;3.90;100.00;95058.00;5090863;28;24495;-77
2022/02/16 07:29:09;;;;;;;0.30;0.30;;;;;;;3.91;100.00;95057.09;5092578;28;24495;-77
2022/02/16 07:31:36;;;;;;;0.20;0.20;;;;;;;4.03;100.00;95056.50;5087628;28;24447;-77
2022/02/16 07:34:02;;;;;;;0.63;0.45;;;;;;;4.05;100.00;95061.56;5076401;28;24487;-77
2022/02/16 07:36:29;;;;;;;0.50;0.23;;;;;;;4.05;100.00;95067.50;5093548;28;24940;-74
2022/02/16 07:38:55;;;;;;;0.20;0.10;;;;;;;4.08;100.00;95063.97;5092304;28;24525;-75
2022/02/16 07:41:22;;;;;;;0.60;0.20;;;;;;;4.09;100.00;95061.34;5092750;28;24437;-76
2022/02/16 07:43:49;;;;;;;0.20;0.20;;;;;;;4.18;100.00;95051.53;5092423;28;24434;-75
2022/02/16 07:46:18;;;;;;;0.50;0.20;;;;;;;4.09;100.00;95061.34;5110232;28;24978;-76
2022/02/16 07:48:45;;;;;;;0.32;0.20;;;;;;;4.11;100.00;95038.19;5081306;28;24797;-76
2022/02/16 07:51:11;;;;;;;0.22;0.20;;;;;;;4.13;100.00;95044.91;5072088;28;24995;-75
2022/02/16 07:53:38;;;;;;;0.80;0.60;;;;;;;4.12;100.00;95053.50;5080235;28;25009;-75
2022/02/16 07:56:05;;;;;;;0.88;0.57;;;;;;;4.18;100.00;95036.97;5091289;28;24487;-76
2022/02/16 07:58:32;;;;;;;0.60;0.57;;;;;;;4.16;100.00;95032.84;5093105;28;24497;-77
2022/02/16 08:00:58;;;;;;;0.65;0.65;;;;;;;4.17;100.00;95030.19;5092940;28;24463;-75
2022/02/16 08:03:26;;;;;;;1.43;0.90;;;;;;;4.18;100.00;95029.28;5073601;28;24498;-76
2022/02/16 08:05:53;;;;;;;2.03;1.20;;;;;;;4.14;100.00;95027.78;5089777;28;24982;-76
2022/02/16 08:08:19;;;;;;;1.80;0.70;;;;;;;4.21;100.00;95031.69;5093687;28;24453;-76
2022/02/16 08:10:49;;;;;;;1.70;1.58;;;;;;;4.22;100.00;95030.78;5093838;28;24422;-73
2022/02/16 08:13:17;;;;;;;0.70;0.60;;;;;;;4.28;100.00;95032.22;5093227;28;24520;-73
2022/02/16 08:15:43;;;;;;;0.25;0.20;;;;;;;4.14;100.00;95025.22;5090813;28;25031;-72
2022/02/16 08:18:13;;;;;;;0.20;0.20;;;;;;;4.10;100.00;95016.03;5074408;28;24425;-73
2022/02/16 08:20:42;;;;;;;0.00;0.00;;;;;;;4.09;100.00;95004.13;5073495;28;24516;-72
2022/02/16 08:23:09;;;;;;;0.40;0.20;;;;;;;4.14;100.00;95012.41;5073208;28;24418;-71
2022/02/16 08:25:36;;;;;;;0.40;0.20;;;;;;;4.10;100.00;95016.03;5072962;28;24484;-71
2022/02/16 08:28:02;;;;;;;0.60;0.30;;;;;;;4.10;100.00;95014.28;5072927;28;24843;-72
2022/02/16 08:30:29;;;;;;;0.50;0.47;;;;;;;4.16;100.00;95005.50;5073601;28;24421;-72
2022/02/16 08:32:56;;;;;;;0.90;0.75;;;;;;;4.24;100.00;94998.25;5073172;28;24496;-72
2022/02/16 08:35:22;;;;;;;1.10;0.20;;;;;;;4.21;100.00;94995.00;5081376;28;24994;-74
2022/02/16 08:37:50;;;;;;;0.50;0.40;;;;;;;4.16;100.00;95002.09;5071863;28;24427;-72
2022/02/16 08:40:16;;;;;;;0.50;0.50;;;;;;;4.18;100.00;94992.59;5081302;28;24437;-73
2022/02/16 08:42:43;;;;;;;0.50;0.30;;;;;;;4.16;100.00;94984.16;5091673;28;24795;-73
2022/02/16 08:45:11;;;;;;;0.50;0.38;;;;;;;4.28;100.00;94970.72;5089338;28;24434;-73
2022/02/16 08:47:37;;;;;;;0.25;0.10;;;;;;;4.31;100.00;94968.00;5085266;28;24793;-72
2022/02/16 08:50:04;;;;;;;0.45;0.20;;;;;;;4.30;100.00;94961.19;5091546;28;24446;-72
2022/02/16 08:52:31;;;;;;;0.10;0.10;;;;;;;4.28;100.00;94957.91;5091636;28;24498;-73
2022/02/16 08:54:58;;;;;;;0.30;0.10;;;;;;;4.30;100.00;94964.63;5091339;28;24427;-74
2022/02/16 08:57:25;;;;;;;0.30;0.20;;;;;;;4.35;100.00;94964.38;5076985;28;24431;-73
2022/02/16 08:59:52;;;;;;;0.38;0.10;;;;;;;4.43;100.00;94967.38;5071878;28;24792;-73
2022/02/16 09:02:18;;;;;;;0.20;0.10;;;;;;;4.49;100.00;94966.22;5082122;28;24816;-72
2022/02/16 09:04:45;;;;;;;0.10;0.00;;;;;;;4.63;100.00;94960.38;5091150;28;24842;-71
2022/02/16 09:07:30;;;;;;;0.85;0.15;;;;;;;4.59;100.00;94960.53;5092297;28;24479;-73
2022/02/16 09:09:57;;;;;;;0.40;0.10;;;;;;;4.64;100.00;94952.59;5084533;28;24455;-75
2022/02/16 09:12:25;;;;;;;0.55;0.15;;;;;;;4.70;100.00;94949.69;5077100;28;24983;-75
2022/02/16 09:14:52;;;;;;;0.10;0.10;;;;;;;4.68;100.00;94938.72;5083637;28;24427;-75
2022/02/16 09:17:18;;;;;;;0.50;0.38;;;;;;;4.71;100.00;94943.69;5079050;28;24456;-74
2022/02/16 09:19:45;;;;;;;0.68;0.35;;;;;;;4.92;100.00;94943.44;5072186;28;25137;-74
2022/02/16 09:22:12;;;;;;;0.77;0.25;;;;;;;4.92;100.00;94943.44;5071563;28;24831;-74
2022/02/16 09:24:39;;;;;;;0.50;0.40;;;;;;;4.93;100.00;94933.09;5077632;28;24528;-74
2022/02/16 09:27:05;;;;;;;0.70;0.60;;;;;;;4.97;100.00;94937.16;5091042;28;24543;-74
2022/02/16 09:29:33;;;;;;;1.10;0.30;;;;;;;5.07;100.00;94940.84;5091680;28;24449;-75
2022/02/16 09:31:59;;;;;;;0.40;0.30;;;;;;;5.03;100.00;94934.25;5083850;28;24480;-74
2022/02/16 09:34:26;;;;;;;0.32;0.22;;;;;;;5.14;100.00;94935.41;5076934;28;24438;-75
2022/02/16 09:36:52;;;;;;;0.35;0.17;;;;;;;5.05;100.00;94929.03;5081945;28;24805;-74
2022/02/16 09:39:19;;;;;;;0.93;0.20;;;;;;;5.05;100.00;94927.31;5088487;28;24807;-75
2022/02/16 09:41:46;;;;;;;0.50;0.20;;;;;;;5.07;100.00;94925.47;5090485;28;24457;-75
2022/02/16 09:44:15;;;;;;;0.40;0.20;;;;;;;5.03;100.00;94923.97;5088284;28;24434;-75
2022/02/16 09:46:42;;;;;;;0.70;0.40;;;;;;;5.15;100.00;94930.16;5084237;28;24438;-75
2022/02/16 09:49:12;;;;;;;0.43;0.30;;;;;;;5.05;100.00;94929.03;5071024;28;24450;-74
2022/02/16 09:51:39;;;;;;;0.57;0.30;;;;;;;5.24;100.00;94905.75;5071007;28;24513;-74
2022/02/16 09:54:05;;;;;;;0.40;0.40;;;;;;;5.16;100.00;94913.06;5072216;28;24817;-74
2022/02/16 09:56:32;;;;;;;0.68;0.30;;;;;;;5.14;100.00;94909.72;5090560;28;24967;-74
2022/02/16 09:58:59;;;;;;;0.82;0.40;;;;;;;5.14;100.00;94908.00;5090766;28;24434;-74
2022/02/16 10:01:26;;;;;;;0.57;0.40;;;;;;;5.24;100.00;94904.00;5090036;28;24431;-75
2022/02/16 10:04:01;;;;;;;0.52;0.30;;;;;;;5.36;100.00;94906.81;5089412;28;24425;-75
2022/02/16 10:06:36;;;;;;;0.13;0.10;;;;;;;5.59;100.00;94914.84;5085923;28;25017;-74
2022/02/16 10:09:04;;;;;;;0.43;0.30;;;;;;;5.49;100.00;94923.19;5070959;28;24492;-74
2022/02/16 10:11:30;;;;;;;0.50;0.38;;;;;;;5.50;100.00;94917.13;5070909;28;24796;-74
2022/02/16 10:14:16;;;;;;;2.47;0.30;;;;;;;5.52;100.00;94918.69;5086899;28;24430;-75
2022/02/16 10:16:42;;;;;;;0.30;0.20;;;;;;;5.58;100.00;94914.94;5070240;28;24506;-75
2022/02/16 10:19:10;;;;;;;0.50;0.20;;;;;;;5.66;100.00;94928.19;5070870;28;24418;-76
2022/02/16 10:21:36;;;;;;;0.93;0.32;;;;;;;5.68;100.00;94926.38;5070708;28;24430;-76
2022/02/16 10:24:03;;;;;;;0.38;0.22;;;;;;;5.68;100.00;94912.69;5073514;28;24434;-76
2022/02/16 10:26:49;;;;;;;0.70;0.20;;;;;;;5.71;100.00;94915.06;5090722;28;24474;-76
2022/02/16 10:29:20;;;;;;;0.22;0.20;;;;;;;5.79;100.00;94921.44;5090928;28;24437;-76
2022/02/16 10:31:46;;;;;;;0.20;0.20;;;;;;;5.91;100.00;94917.31;5090776;28;24521;-74
2022/02/16 10:34:14;;;;;;;0.20;0.10;;;;;;;5.89;100.00;94918.31;5088369;28;24434;-75
2022/02/16 10:36:41;;;;;;;0.35;0.13;;;;;;;5.94;100.00;94917.19;5089291;28;24418;-75
2022/02/16 10:39:10;;;;;;;0.35;0.20;;;;;;;6.00;100.00;94906.53;5070901;28;24468;-74
2022/02/16 10:41:41;;;;;;;0.20;0.20;;;;;;;6.06;100.00;94920.78;5072297;28;24972;-75
2022/02/16 10:44:17;;;;;;;0.28;0.20;;;;;;;6.06;100.00;94908.75;5087353;28;24492;-74
2022/02/16 10:46:43;;;;;;;0.60;0.30;;;;;;;6.15;100.00;94911.69;5070296;28;25009;-75
2022/02/16 10:49:12;;;;;;;0.70;0.35;;;;;;;6.28;100.00;94899.78;5071057;28;24443;-74
2022/02/16 10:51:40;;;;;;;0.40;0.20;;;;;;;6.31;100.00;94904.72;5071476;28;24434;-74
2022/02/16 10:54:12;;;;;;;0.28;0.20;;;;;;;6.56;100.00;94891.19;5074892;28;24521;-74
2022/02/16 10:56:39;;;;;;;0.47;0.20;;;;;;;6.49;100.00;94892.53;5091182;28;20860;-74
2022/02/16 10:59:06;;;;;;;0.43;0.13;;;;;;;6.62;100.00;94901.13;5091881;28;24463;-74
2022/02/16 11:01:34;;;;;;;0.40;0.30;;;;;;;6.55;100.00;94895.53;5090302;28;24433;-74
2022/02/16 11:04:03;;;;;;;0.60;0.40;;;;;;;6.55;100.00;94902.41;5088146;28;24472;-74
2022/02/16 11:06:30;;;;;;;0.40;0.22;;;;;;;6.54;100.00;94900.78;5070738;28;24960;-74
2022/02/16 11:09:00;;;;;;;0.40;0.30;;;;;;;6.60;100.00;94902.13;5070919;28;24442;-73
2022/02/16 11:11:27;;;;;;;0.20;0.10;;;;;;;6.76;100.00;94890.00;5070539;28;21348;-74
2022/02/16 11:13:55;;;;;;;0.43;0.20;;;;;;;6.75;100.00;94889.16;5085638;28;24442;-73
2022/02/16 11:16:21;;;;;;;0.40;0.20;;;;;;;6.78;100.00;94886.38;5071829;28;24430;-74
2022/02/16 11:18:49;;;;;;;1.00;0.90;;;;;;;6.88;100.00;94896.94;5070537;28;20746;-74
2022/02/16 11:21:18;;;;;;;1.23;1.05;;;;;;;6.91;100.00;94877.91;5070631;28;25193;-74
2022/02/16 11:23:47;;;;;;;2.08;1.10;;;;;;;7.00;100.00;94883.28;5070281;28;24514;-74
2022/02/16 11:26:34;;;;;;;3.08;1.65;;;;;;;6.94;100.00;94888.03;5073683;28;24496;-73
2022/02/16 11:29:02;;;;;;;2.08;1.33;;;;;;;6.96;100.00;94886.16;5073556;28;24476;-74
2022/02/16 11:31:30;;;;;;;2.65;1.58;;;;;;;6.98;100.00;94895.47;5073338;28;20814;-74
2022/02/16 11:34:22;;;;;;;1.02;0.85;;;;;;;7.03;100.00;94880.53;5073468;28;24458;-74